createdAt,value
2022-10-12T00:00:28.680Z,19.88
2022-10-12T00:04:30.417Z,21.08
2022-10-12T00:08:32.357Z,20.30
2022-10-12T00:12:34.150Z,19.98
2022-10-12T00:16:36.293Z,20.55
2022-10-12T00:20:37.819Z,23.23
2022-10-12T00:24:42.837Z,19.58
2022-10-12T00:28:44.972Z,16.40
2022-10-12T00:32:46.825Z,18.55
2022-10-12T00:36:48.658Z,19.77
2022-10-12T00:40:50.426Z,18.80
2022-10-12T00:44:53.235Z,19.67
2022-10-12T00:49:27.128Z,21.83
2022-10-12T00:53:33.044Z,20.88
2022-10-12T00:57:34.775Z,22.00
2022-10-12T01:01:36.565Z,23.02
2022-10-12T01:05:40.412Z,21.70
2022-10-12T01:09:42.173Z,19.48
2022-10-12T01:13:43.799Z,20.08
2022-10-12T01:18:09.123Z,20.63
2022-10-12T01:22:15.936Z,21.00
2022-10-12T01:26:31.618Z,21.20
2022-10-12T01:30:36.791Z,21.60
2022-10-12T01:34:54.737Z,21.80
2022-10-12T01:39:21.490Z,20.13
2022-10-12T01:43:23.710Z,21.43
2022-10-12T01:47:25.421Z,20.65
2022-10-12T01:51:45.482Z,21.60
2022-10-12T01:55:55.952Z,19.95
2022-10-12T02:00:11.334Z,20.88
2022-10-12T02:04:19.643Z,19.73
2022-10-12T02:08:25.226Z,18.45
2022-10-12T02:12:28.724Z,18.52
2022-10-12T02:16:35.904Z,16.10
2022-10-12T02:20:38.311Z,18.77
2022-10-12T02:24:41.771Z,21.42
2022-10-12T02:28:45.020Z,18.88
2022-10-12T02:33:10.411Z,16.88
2022-10-12T02:37:15.230Z,17.25
2022-10-12T02:41:25.058Z,16.65
2022-10-12T02:45:27.959Z,16.27
2022-10-12T02:49:30.997Z,18.08
2022-10-12T02:53:32.658Z,15.02
2022-10-12T02:57:34.179Z,16.00
2022-10-12T03:01:35.759Z,17.02
2022-10-12T03:05:37.251Z,15.95
2022-10-12T03:09:38.650Z,16.17
2022-10-12T03:13:40.275Z,17.25
2022-10-12T03:17:41.882Z,17.90
2022-10-12T03:21:43.698Z,15.35
2022-10-12T03:25:45.160Z,16.48
2022-10-12T03:29:46.961Z,15.18
2022-10-12T03:33:48.578Z,19.35
2022-10-12T03:37:50.153Z,17.13
2022-10-12T03:41:51.556Z,17.58
2022-10-12T03:45:53.945Z,19.98
2022-10-12T03:49:55.977Z,19.73
2022-10-12T03:53:57.422Z,21.42
2022-10-12T03:57:59.052Z,15.85
2022-10-12T04:02:02.001Z,15.70
2022-10-12T04:06:03.793Z,15.88
2022-10-12T04:10:06.637Z,15.27
2022-10-12T04:14:08.142Z,17.08
2022-10-12T04:18:09.623Z,15.48
2022-10-12T04:22:11.830Z,18.00
2022-10-12T04:26:13.487Z,22.30
2022-10-12T04:30:15.668Z,23.98
2022-10-12T04:34:17.270Z,23.30
2022-10-12T04:38:18.751Z,21.35
2022-10-12T04:42:20.164Z,23.45
2022-10-12T04:46:21.926Z,22.67
2022-10-12T04:50:28.973Z,22.70
2022-10-12T04:54:33.018Z,25.90
2022-10-12T04:58:34.888Z,27.05
2022-10-12T05:02:36.600Z,25.70
2022-10-12T05:06:38.018Z,24.95
2022-10-12T05:10:40.445Z,28.40
2022-10-12T05:14:44.376Z,27.15
2022-10-12T05:18:45.865Z,27.80
2022-10-12T05:22:47.491Z,26.95
2022-10-12T05:26:48.884Z,26.40
2022-10-12T05:30:51.748Z,25.80
2022-10-12T05:34:53.196Z,27.33
2022-10-12T05:38:54.722Z,28.17
2022-10-12T05:42:56.103Z,27.13
2022-10-12T05:46:57.682Z,27.85
2022-10-12T05:50:59.275Z,28.50
2022-10-12T05:55:00.840Z,27.25
2022-10-12T05:59:03.662Z,25.35
2022-10-12T06:03:05.023Z,28.40
2022-10-12T06:07:09.261Z,27.90
2022-10-12T06:11:10.752Z,24.15
2022-10-12T06:15:12.213Z,26.23
2022-10-12T06:19:13.924Z,27.45
2022-10-12T06:23:15.403Z,28.02
2022-10-12T06:27:19.928Z,29.20
2022-10-12T06:31:22.023Z,29.50
2022-10-12T06:35:23.442Z,28.02
2022-10-12T06:39:25.692Z,26.23
2022-10-12T06:43:27.139Z,27.20
2022-10-12T06:47:28.526Z,27.25
2022-10-12T06:51:29.971Z,28.30
2022-10-12T06:55:31.614Z,25.33
2022-10-12T06:59:33.496Z,26.92
2022-10-12T07:03:34.962Z,28.75
2022-10-12T07:07:36.857Z,27.88
2022-10-12T07:11:38.262Z,27.13
2022-10-12T07:15:39.733Z,26.70
2022-10-12T07:19:41.123Z,28.65
2022-10-12T07:23:46.037Z,26.75
2022-10-12T07:27:48.959Z,24.23
2022-10-12T07:31:52.049Z,25.35
2022-10-12T07:36:14.466Z,23.65
2022-10-12T07:40:17.278Z,25.45
2022-10-12T07:44:19.688Z,25.58
2022-10-12T07:48:21.934Z,24.10
2022-10-12T07:52:23.604Z,24.23
2022-10-12T07:56:25.042Z,23.30
2022-10-12T08:00:27.247Z,22.42
2022-10-12T08:04:28.699Z,22.90
2022-10-12T08:08:30.097Z,21.13
2022-10-12T08:12:31.558Z,21.73
2022-10-12T08:16:33.689Z,19.27
2022-10-12T08:20:35.166Z,22.27
2022-10-12T08:24:36.731Z,19.73
2022-10-12T08:28:38.528Z,21.27
2022-10-12T08:32:40.244Z,22.52
2022-10-12T08:36:41.802Z,20.83
2022-10-12T08:40:50.910Z,22.17
2022-10-12T08:45:20.260Z,21.52
2022-10-12T08:49:24.330Z,20.20
2022-10-12T08:53:26.185Z,19.55
2022-10-12T08:57:27.661Z,18.00
2022-10-12T09:01:38.404Z,19.70
2022-10-12T09:05:44.929Z,18.85
2022-10-12T09:10:17.428Z,19.52
2022-10-12T09:14:26.424Z,19.15
2022-10-12T09:18:39.658Z,18.40
2022-10-12T09:22:44.444Z,16.75
2022-10-12T09:26:49.928Z,17.67
2022-10-12T09:31:00.472Z,16.60
2022-10-12T09:35:02.571Z,16.55
2022-10-12T09:39:06.942Z,15.23
2022-10-12T09:43:09.794Z,14.77
2022-10-12T09:47:29.489Z,15.38
2022-10-12T09:51:32.587Z,14.73
2022-10-12T09:55:34.033Z,14.77
2022-10-12T09:59:39.606Z,14.93
2022-10-12T10:03:41.184Z,13.23
2022-10-12T10:07:42.583Z,12.70
2022-10-12T10:11:44.030Z,13.88
2022-10-12T10:15:50.305Z,14.50
2022-10-12T10:19:53.192Z,13.73
2022-10-12T10:23:57.821Z,14.07
2022-10-12T10:28:22.634Z,14.73
2022-10-12T10:32:29.531Z,13.38
2022-10-12T10:36:31.882Z,12.03
2022-10-12T10:40:34.091Z,13.43
2022-10-12T10:44:36.340Z,13.15
2022-10-12T10:48:51.507Z,13.05
2022-10-12T10:53:05.523Z,12.30
2022-10-12T10:57:15.474Z,11.55
2022-10-12T11:01:29.146Z,11.32
2022-10-12T11:05:39.993Z,12.15
2022-10-12T11:09:44.180Z,10.95
2022-10-12T11:13:51.752Z,10.68
2022-10-12T11:17:59.164Z,12.80
2022-10-12T11:22:04.400Z,11.38
2022-10-12T11:26:32.390Z,10.80
2022-10-12T11:30:42.799Z,10.77
2022-10-12T11:34:49.848Z,10.02
2022-10-12T11:38:55.933Z,9.57
2022-10-12T11:43:01.175Z,10.95
2022-10-12T11:47:06.932Z,10.32
2022-10-12T11:51:08.694Z,9.23
2022-10-12T11:55:25.531Z,9.63
2022-10-12T11:59:30.043Z,8.73
2022-10-12T12:03:54.134Z,8.75
2022-10-12T12:07:56.665Z,8.63
2022-10-12T12:12:18.506Z,8.00
2022-10-12T12:16:19.936Z,9.10
2022-10-12T12:20:46.772Z,8.27
2022-10-12T12:25:10.995Z,8.23
2022-10-12T12:29:18.509Z,8.38
2022-10-12T12:33:20.162Z,8.10
2022-10-12T12:37:22.732Z,7.68
2022-10-12T12:41:57.739Z,6.72
2022-10-12T12:46:13.035Z,7.25
2022-10-12T12:50:30.663Z,8.18
2022-10-12T12:58:55.669Z,6.60
2022-10-12T13:03:42.402Z,5.65
2022-10-12T13:08:04.265Z,5.55
2022-10-12T13:12:45.866Z,4.50
2022-10-12T13:21:28.969Z,5.03
2022-10-12T13:25:37.084Z,4.90
2022-10-12T13:29:46.493Z,5.20
2022-10-12T13:33:55.899Z,4.93
2022-10-12T13:38:05.054Z,4.57
2022-10-12T13:42:06.986Z,4.47
2022-10-12T13:46:11.632Z,4.30
2022-10-12T13:50:18.590Z,3.95
2022-10-12T13:54:23.808Z,4.23
2022-10-12T13:58:29.469Z,4.18
2022-10-12T14:02:31.866Z,4.22
2022-10-12T14:06:36.923Z,5.63
2022-10-12T14:10:38.564Z,7.10
2022-10-12T14:14:41.629Z,5.65
2022-10-12T14:18:45.810Z,5.25
2022-10-12T14:22:50.810Z,6.03
2022-10-12T14:27:01.171Z,5.15
2022-10-12T14:31:02.949Z,5.78
2022-10-12T14:35:05.085Z,6.82
2022-10-12T14:39:14.558Z,6.80
2022-10-12T14:43:16.003Z,6.07
2022-10-12T14:47:41.877Z,5.15
2022-10-12T14:51:43.402Z,5.18
2022-10-12T14:55:46.928Z,6.32
2022-10-12T14:59:50.294Z,6.13
2022-10-12T15:03:52.029Z,6.43
2022-10-12T15:07:53.485Z,5.55
2022-10-12T15:11:54.898Z,6.18
2022-10-12T15:15:57.301Z,4.97
2022-10-12T15:19:58.876Z,7.30
2022-10-12T15:24:00.439Z,7.00
2022-10-12T15:28:02.795Z,5.63
2022-10-12T15:32:04.634Z,6.85
2022-10-12T15:36:06.666Z,7.18
2022-10-12T15:40:10.343Z,6.55
2022-10-12T15:44:12.708Z,6.72
2022-10-12T15:48:14.175Z,6.35
2022-10-12T15:52:16.863Z,7.90
2022-10-12T15:56:18.848Z,6.97
2022-10-12T16:00:22.855Z,8.65
2022-10-12T16:04:24.286Z,9.23
2022-10-12T16:08:25.921Z,7.25
2022-10-12T16:12:27.762Z,6.50
2022-10-12T16:16:31.355Z,7.15
2022-10-12T16:20:36.724Z,6.72
2022-10-12T16:24:38.651Z,6.93
2022-10-12T16:28:40.367Z,6.72
2022-10-12T16:32:41.892Z,6.80
2022-10-12T16:36:43.309Z,6.82
2022-10-12T16:40:44.909Z,7.60
2022-10-12T16:44:46.322Z,7.90
2022-10-12T16:48:49.265Z,7.70
2022-10-12T16:52:51.505Z,7.40
2022-10-12T16:56:53.054Z,7.80
2022-10-12T17:00:54.718Z,7.63
2022-10-12T17:04:56.336Z,9.05
2022-10-12T17:08:58.583Z,7.22
2022-10-12T17:13:00.130Z,9.05
2022-10-12T17:17:01.596Z,7.85
2022-10-12T17:21:02.966Z,7.97
2022-10-12T17:25:04.845Z,8.57
2022-10-12T17:29:09.010Z,9.27
2022-10-12T17:33:10.401Z,8.18
2022-10-12T17:37:12.564Z,9.05
2022-10-12T17:41:14.029Z,8.10
2022-10-12T17:45:15.617Z,9.15
2022-10-12T17:49:23.638Z,9.05
2022-10-12T17:53:26.451Z,10.02
2022-10-12T17:57:28.081Z,9.48
2022-10-12T18:01:30.800Z,9.45
2022-10-12T18:05:33.918Z,10.05
2022-10-12T18:09:35.532Z,8.70
2022-10-12T18:13:37.449Z,8.55
2022-10-12T18:17:38.899Z,10.60
2022-10-12T18:21:41.049Z,12.68
2022-10-12T18:25:43.178Z,13.75
2022-10-12T18:29:45.579Z,11.10
2022-10-12T18:33:47.678Z,9.60
2022-10-12T18:37:49.675Z,11.02
2022-10-12T18:41:52.055Z,11.57
2022-10-12T18:45:53.865Z,11.90
2022-10-12T18:49:55.783Z,11.40
2022-10-12T18:53:59.423Z,11.10
2022-10-12T18:58:00.844Z,12.15
2022-10-12T19:02:02.720Z,11.13
2022-10-12T19:06:10.288Z,11.88
2022-10-12T19:10:11.823Z,13.88
2022-10-12T19:14:14.779Z,13.75
2022-10-12T19:18:16.438Z,12.55
2022-10-12T19:22:18.070Z,13.07
2022-10-12T19:26:23.306Z,11.48
2022-10-12T19:30:24.901Z,12.73
2022-10-12T19:34:26.477Z,12.70
2022-10-12T19:38:28.085Z,12.43
2022-10-12T19:42:29.466Z,9.73
2022-10-12T19:46:31.192Z,10.77
2022-10-12T19:50:33.110Z,10.52
2022-10-12T19:54:36.330Z,13.48
2022-10-12T19:58:37.869Z,10.30
2022-10-12T20:02:41.443Z,11.35
2022-10-12T20:06:43.242Z,11.68
2022-10-12T20:10:44.651Z,12.20
2022-10-12T20:14:46.026Z,13.63
2022-10-12T20:18:47.879Z,12.82
2022-10-12T20:22:49.332Z,13.20
2022-10-12T20:26:50.897Z,13.07
2022-10-12T20:30:52.288Z,12.90
2022-10-12T20:34:55.792Z,15.73
2022-10-12T20:38:58.555Z,13.20
2022-10-12T20:42:59.947Z,14.35
2022-10-12T20:47:01.400Z,13.73
2022-10-12T20:51:07.498Z,13.77
2022-10-12T20:55:09.801Z,13.52
2022-10-12T20:59:11.302Z,13.65
2022-10-12T21:03:12.975Z,13.85
2022-10-12T21:07:15.986Z,12.73
2022-10-12T21:11:17.798Z,13.60
2022-10-12T21:15:20.462Z,12.70
2022-10-12T21:19:22.022Z,13.55
2022-10-12T21:23:24.178Z,12.10
2022-10-12T21:27:25.910Z,13.60
2022-10-12T21:31:32.254Z,12.50
2022-10-12T21:35:34.754Z,13.20
2022-10-12T21:39:37.550Z,11.70
2022-10-12T21:43:44.282Z,11.40
2022-10-12T21:47:45.685Z,12.93
2022-10-12T21:51:47.250Z,13.32
2022-10-12T21:55:48.992Z,12.25
2022-10-12T21:59:50.680Z,11.93
2022-10-12T22:03:59.886Z,12.73
2022-10-12T22:08:01.490Z,12.70
2022-10-12T22:12:03.441Z,13.02
2022-10-12T22:16:08.721Z,12.52
2022-10-12T22:20:10.770Z,12.95
2022-10-12T22:24:14.239Z,13.18
2022-10-12T22:28:16.262Z,10.95
2022-10-12T22:32:18.452Z,12.85
2022-10-12T22:36:20.138Z,12.15
2022-10-12T22:40:21.639Z,12.15
2022-10-12T22:44:23.522Z,12.52
2022-10-12T22:48:25.552Z,10.77
2022-10-12T22:52:27.008Z,12.85
2022-10-12T22:56:29.443Z,11.15
2022-10-12T23:00:31.372Z,11.75
2022-10-12T23:04:33.548Z,13.75
2022-10-12T23:09:06.510Z,11.63
2022-10-12T23:13:08.077Z,11.68
2022-10-12T23:17:09.826Z,12.85
2022-10-12T23:21:13.886Z,12.77
2022-10-12T23:25:16.218Z,13.20
2022-10-12T23:29:17.824Z,11.27
2022-10-12T23:33:19.256Z,13.00
2022-10-12T23:37:20.747Z,13.48
2022-10-12T23:41:22.931Z,13.55
2022-10-12T23:45:24.410Z,13.75
2022-10-12T23:49:25.878Z,13.43
2022-10-12T23:53:28.064Z,12.80
2022-10-12T23:57:46.063Z,15.40
